sensor_id;sensor_type;location;lat;lon;timestamp;temperature;humidity
9776;DHT22;4927;52.472;13.108;2023-07-09T00:00:54;17.70;99.90
9776;DHT22;4927;52.472;13.108;2023-07-09T00:01:57;17.70;99.90
9776;DHT22;4927;52.472;13.108;2023-07-09T00:02:59;17.60;99.90
9776;DHT22;4927;52.472;13.108;2023-07-09T00:04:01;17.60;99.90
9776;DHT22;4927;52.472;13.108;2023-07-09T00:05:05;17.60;99.90
9776;DHT22;4927;52.472;13.108;2023-07-09T00:06:07;17.60;99.90
9776;DHT22;4927;52.472;13.108;2023-07-09T00:07:15;17.60;99.90
9776;DHT22;4927;52.472;13.108;2023-07-09T00:08:29;17.60;99.90
9776;DHT22;4927;52.472;13.108;2023-07-09T00:09:32;17.50;99.90
9776;DHT22;4927;52.472;13.108;2023-07-09T00:10:34;17.50;99.90
9776;DHT22;4927;52.472;13.108;2023-07-09T00:11:36;17.50;99.90
9776;DHT22;4927;52.472;13.108;2023-07-09T00:12:41;17.50;99.90
9776;DHT22;4927;52.472;13.108;2023-07-09T00:13:43;17.50;99.90
9776;DHT22;4927;52.472;13.108;2023-07-09T00:14:45;17.40;99.90
9776;DHT22;4927;52.472;13.108;2023-07-09T00:15:47;17.40;99.90
9776;DHT22;4927;52.472;13.108;2023-07-09T00:16:49;17.40;99.90
9776;DHT22;4927;52.472;13.108;2023-07-09T00:17:51;17.40;99.90
9776;DHT22;4927;52.472;13.108;2023-07-09T00:18:53;17.40;99.90
9776;DHT22;4927;52.472;13.108;2023-07-09T00:20:04;17.40;99.90
9776;DHT22;4927;52.472;13.108;2023-07-09T00:21:07;17.30;99.90
9776;DHT22;4927;52.472;13.108;2023-07-09T00:22:13;17.30;99.90
9776;DHT22;4927;52.472;13.108;2023-07-09T00:23:11;17.30;99.90
9776;DHT22;4927;52.472;13.108;2023-07-09T00:24:14;17.30;99.90
9776;DHT22;4927;52.472;13.108;2023-07-09T00:25:17;17.30;99.90
9776;DHT22;4927;52.472;13.108;2023-07-09T00:26:18;17.30;99.90
9776;DHT22;4927;52.472;13.108;2023-07-09T00:27:20;17.20;99.90
9776;DHT22;4927;52.472;13.108;2023-07-09T00:28:23;17.20;99.90
9776;DHT22;4927;52.472;13.108;2023-07-09T00:29:26;17.10;99.90
9776;DHT22;4927;52.472;13.108;2023-07-09T00:30:28;17.20;99.90
9776;DHT22;4927;52.472;13.108;2023-07-09T00:31:30;17.10;99.90
9776;DHT22;4927;52.472;13.108;2023-07-09T00:32:32;17.10;99.90
9776;DHT22;4927;52.472;13.108;2023-07-09T00:33:34;17.20;99.90
9776;DHT22;4927;52.472;13.108;2023-07-09T00:34:36;17.10;99.90
9776;DHT22;4927;52.472;13.108;2023-07-09T00:35:40;17.10;99.90
9776;DHT22;4927;52.472;13.108;2023-07-09T00:36:42;17.10;99.90
9776;DHT22;4927;52.472;13.108;2023-07-09T00:37:45;17.10;99.90
9776;DHT22;4927;52.472;13.108;2023-07-09T00:38:47;17.10;99.90
9776;DHT22;4927;52.472;13.108;2023-07-09T00:39:49;17.10;99.90
9776;DHT22;4927;52.472;13.108;2023-07-09T00:41:01;17.00;99.90
9776;DHT22;4927;52.472;13.108;2023-07-09T00:42:03;17.00;99.90
9776;DHT22;4927;52.472;13.108;2023-07-09T00:43:07;17.00;99.90
9776;DHT22;4927;52.472;13.108;2023-07-09T00:44:20;17.00;99.90
9776;DHT22;4927;52.472;13.108;2023-07-09T00:45:34;17.00;99.90
9776;DHT22;4927;52.472;13.108;2023-07-09T00:47:12;16.90;99.90
9776;DHT22;4927;52.472;13.108;2023-07-09T00:48:11;16.90;99.90
9776;DHT22;4927;52.472;13.108;2023-07-09T00:49:11;16.80;99.90
9776;DHT22;4927;52.472;13.108;2023-07-09T00:50:19;16.80;99.90
9776;DHT22;4927;52.472;13.108;2023-07-09T00:51:18;16.80;99.90
9776;DHT22;4927;52.472;13.108;2023-07-09T00:52:22;16.80;99.90
9776;DHT22;4927;52.472;13.108;2023-07-09T00:53:27;16.80;99.90
9776;DHT22;4927;52.472;13.108;2023-07-09T00:54:31;16.80;99.90
9776;DHT22;4927;52.472;13.108;2023-07-09T00:55:31;16.70;99.90
9776;DHT22;4927;52.472;13.108;2023-07-09T00:56:35;16.70;99.90
9776;DHT22;4927;52.472;13.108;2023-07-09T00:57:35;16.70;99.90
9776;DHT22;4927;52.472;13.108;2023-07-09T00:58:38;16.70;99.90
9776;DHT22;4927;52.472;13.108;2023-07-09T00:59:40;16.70;99.90
9776;DHT22;4927;52.472;13.108;2023-07-09T01:00:45;16.60;99.90
9776;DHT22;4927;52.472;13.108;2023-07-09T01:01:47;16.70;99.90
9776;DHT22;4927;52.472;13.108;2023-07-09T01:02:50;16.60;99.90
9776;DHT22;4927;52.472;13.108;2023-07-09T01:03:53;16.60;99.90
9776;DHT22;4927;52.472;13.108;2023-07-09T01:04:57;16.60;99.90
9776;DHT22;4927;52.472;13.108;2023-07-09T01:05:58;16.60;99.90
9776;DHT22;4927;52.472;13.108;2023-07-09T01:07:00;16.50;99.90
9776;DHT22;4927;52.472;13.108;2023-07-09T01:08:04;16.50;99.90
9776;DHT22;4927;52.472;13.108;2023-07-09T01:09:06;16.50;99.90
9776;DHT22;4927;52.472;13.108;2023-07-09T01:10:08;16.50;99.90
9776;DHT22;4927;52.472;13.108;2023-07-09T01:11:15;16.50;99.90
9776;DHT22;4927;52.472;13.108;2023-07-09T01:12:17;16.40;99.90
9776;DHT22;4927;52.472;13.108;2023-07-09T01:13:18;16.40;99.90
9776;DHT22;4927;52.472;13.108;2023-07-09T01:14:21;16.40;99.90
9776;DHT22;4927;52.472;13.108;2023-07-09T01:15:23;16.40;99.90
9776;DHT22;4927;52.472;13.108;2023-07-09T01:16:28;16.40;99.90
9776;DHT22;4927;52.472;13.108;2023-07-09T01:17:29;16.40;99.90
9776;DHT22;4927;52.472;13.108;2023-07-09T01:18:31;16.40;99.90
9776;DHT22;4927;52.472;13.108;2023-07-09T01:19:37;16.30;99.90
9776;DHT22;4927;52.472;13.108;2023-07-09T01:20:38;16.30;99.90
9776;DHT22;4927;52.472;13.108;2023-07-09T01:21:40;16.30;99.90
9776;DHT22;4927;52.472;13.108;2023-07-09T01:22:43;16.30;99.90
9776;DHT22;4927;52.472;13.108;2023-07-09T01:23:47;16.20;99.90
9776;DHT22;4927;52.472;13.108;2023-07-09T01:25:04;16.20;99.90
9776;DHT22;4927;52.472;13.108;2023-07-09T01:26:08;16.20;99.90
9776;DHT22;4927;52.472;13.108;2023-07-09T01:27:10;16.20;99.90
9776;DHT22;4927;52.472;13.108;2023-07-09T01:28:12;16.20;99.90
9776;DHT22;4927;52.472;13.108;2023-07-09T01:29:14;16.20;99.90
9776;DHT22;4927;52.472;13.108;2023-07-09T01:30:21;16.20;99.90
9776;DHT22;4927;52.472;13.108;2023-07-09T01:31:21;16.20;99.90
9776;DHT22;4927;52.472;13.108;2023-07-09T01:32:23;16.10;99.90
9776;DHT22;4927;52.472;13.108;2023-07-09T01:33:26;16.10;99.90
9776;DHT22;4927;52.472;13.108;2023-07-09T01:34:28;16.10;99.90
9776;DHT22;4927;52.472;13.108;2023-07-09T01:35:31;16.00;99.90
9776;DHT22;4927;52.472;13.108;2023-07-09T01:36:32;16.00;99.90
9776;DHT22;4927;52.472;13.108;2023-07-09T01:37:35;16.00;99.90
9776;DHT22;4927;52.472;13.108;2023-07-09T01:38:36;16.00;99.90
9776;DHT22;4927;52.472;13.108;2023-07-09T01:39:38;15.90;99.90
9776;DHT22;4927;52.472;13.108;2023-07-09T01:40:40;15.90;99.90
9776;DHT22;4927;52.472;13.108;2023-07-09T01:41:42;15.90;99.90
9776;DHT22;4927;52.472;13.108;2023-07-09T01:42:44;15.90;99.90
9776;DHT22;4927;52.472;13.108;2023-07-09T01:43:47;15.90;99.90
9776;DHT22;4927;52.472;13.108;2023-07-09T01:44:49;15.90;99.90
9776;DHT22;4927;52.472;13.108;2023-07-09T01:45:51;15.80;99.90
9776;DHT22;4927;52.472;13.108;2023-07-09T01:48:09;15.80;99.90
9776;DHT22;4927;52.472;13.108;2023-07-09T01:49:11;15.80;99.90
9776;DHT22;4927;52.472;13.108;2023-07-09T01:50:13;15.70;99.90
9776;DHT22;4927;52.472;13.108;2023-07-09T01:51:15;15.70;99.90
9776;DHT22;4927;52.472;13.108;2023-07-09T01:52:18;15.80;99.90
9776;DHT22;4927;52.472;13.108;2023-07-09T01:53:22;15.70;99.90
9776;DHT22;4927;52.472;13.108;2023-07-09T01:54:24;15.70;99.90
9776;DHT22;4927;52.472;13.108;2023-07-09T01:55:26;15.70;99.90
9776;DHT22;4927;52.472;13.108;2023-07-09T01:56:28;15.70;99.90
9776;DHT22;4927;52.472;13.108;2023-07-09T01:57:30;15.90;99.90
9776;DHT22;4927;52.472;13.108;2023-07-09T01:58:34;15.70;99.90
9776;DHT22;4927;52.472;13.108;2023-07-09T01:59:36;15.70;99.90
9776;DHT22;4927;52.472;13.108;2023-07-09T02:00:38;15.70;99.90
9776;DHT22;4927;52.472;13.108;2023-07-09T02:01:40;15.70;99.90
9776;DHT22;4927;52.472;13.108;2023-07-09T02:02:43;15.70;99.90
9776;DHT22;4927;52.472;13.108;2023-07-09T02:03:45;15.70;99.90
9776;DHT22;4927;52.472;13.108;2023-07-09T02:04:49;15.70;99.90
9776;DHT22;4927;52.472;13.108;2023-07-09T02:05:52;15.70;99.90
9776;DHT22;4927;52.472;13.108;2023-07-09T02:06:54;15.70;99.90
9776;DHT22;4927;52.472;13.108;2023-07-09T02:07:56;15.70;99.90
9776;DHT22;4927;52.472;13.108;2023-07-09T02:08:58;15.70;99.90
9776;DHT22;4927;52.472;13.108;2023-07-09T02:10:02;15.70;99.90
9776;DHT22;4927;52.472;13.108;2023-07-09T02:11:05;15.70;99.90
9776;DHT22;4927;52.472;13.108;2023-07-09T02:12:08;15.70;99.90
9776;DHT22;4927;52.472;13.108;2023-07-09T02:13:11;15.70;99.90
9776;DHT22;4927;52.472;13.108;2023-07-09T02:14:14;15.70;99.90
9776;DHT22;4927;52.472;13.108;2023-07-09T02:15:16;15.70;99.90
9776;DHT22;4927;52.472;13.108;2023-07-09T02:16:19;15.70;99.90
9776;DHT22;4927;52.472;13.108;2023-07-09T02:17:21;15.70;99.90
9776;DHT22;4927;52.472;13.108;2023-07-09T02:18:23;15.60;99.90
9776;DHT22;4927;52.472;13.108;2023-07-09T02:19:25;15.70;99.90
9776;DHT22;4927;52.472;13.108;2023-07-09T02:20:27;15.60;99.90
9776;DHT22;4927;52.472;13.108;2023-07-09T02:21:29;15.60;99.90
9776;DHT22;4927;52.472;13.108;2023-07-09T02:22:31;15.60;99.90
9776;DHT22;4927;52.472;13.108;2023-07-09T02:23:33;15.60;99.90
9776;DHT22;4927;52.472;13.108;2023-07-09T02:24:35;15.50;99.90
9776;DHT22;4927;52.472;13.108;2023-07-09T02:25:38;15.60;99.90
9776;DHT22;4927;52.472;13.108;2023-07-09T02:26:40;15.50;99.90
9776;DHT22;4927;52.472;13.108;2023-07-09T02:27:42;15.50;99.90
9776;DHT22;4927;52.472;13.108;2023-07-09T02:28:45;15.50;99.90
9776;DHT22;4927;52.472;13.108;2023-07-09T02:29:47;15.50;99.90
9776;DHT22;4927;52.472;13.108;2023-07-09T02:30:49;15.50;99.90
9776;DHT22;4927;52.472;13.108;2023-07-09T02:31:52;15.50;99.90
9776;DHT22;4927;52.472;13.108;2023-07-09T02:32:54;15.50;99.90
9776;DHT22;4927;52.472;13.108;2023-07-09T02:33:56;15.50;99.90
9776;DHT22;4927;52.472;13.108;2023-07-09T02:34:58;15.40;99.90
9776;DHT22;4927;52.472;13.108;2023-07-09T02:36:00;15.40;99.90
9776;DHT22;4927;52.472;13.108;2023-07-09T02:37:02;15.40;99.90
9776;DHT22;4927;52.472;13.108;2023-07-09T02:38:04;15.40;99.90
9776;DHT22;4927;52.472;13.108;2023-07-09T02:39:06;15.40;99.90
9776;DHT22;4927;52.472;13.108;2023-07-09T02:40:09;15.40;99.90
9776;DHT22;4927;52.472;13.108;2023-07-09T02:41:11;15.40;99.90
9776;DHT22;4927;52.472;13.108;2023-07-09T02:42:13;15.40;99.90
9776;DHT22;4927;52.472;13.108;2023-07-09T02:43:15;15.30;99.90
9776;DHT22;4927;52.472;13.108;2023-07-09T02:44:17;15.30;99.90
9776;DHT22;4927;52.472;13.108;2023-07-09T02:45:19;15.30;99.90
9776;DHT22;4927;52.472;13.108;2023-07-09T02:46:21;15.30;99.90
9776;DHT22;4927;52.472;13.108;2023-07-09T02:47:23;15.30;99.90
9776;DHT22;4927;52.472;13.108;2023-07-09T02:48:25;15.30;99.90
9776;DHT22;4927;52.472;13.108;2023-07-09T02:49:27;15.30;99.90
9776;DHT22;4927;52.472;13.108;2023-07-09T02:50:29;15.30;99.90
9776;DHT22;4927;52.472;13.108;2023-07-09T02:51:31;15.30;99.90
9776;DHT22;4927;52.472;13.108;2023-07-09T02:52:34;15.30;99.90
9776;DHT22;4927;52.472;13.108;2023-07-09T02:53:36;15.30;99.90
9776;DHT22;4927;52.472;13.108;2023-07-09T02:54:38;15.30;99.90
9776;DHT22;4927;52.472;13.108;2023-07-09T02:55:40;15.30;99.90
9776;DHT22;4927;52.472;13.108;2023-07-09T02:56:42;15.30;99.90
9776;DHT22;4927;52.472;13.108;2023-07-09T02:57:44;15.20;99.90
9776;DHT22;4927;52.472;13.108;2023-07-09T02:58:46;15.20;99.90
9776;DHT22;4927;52.472;13.108;2023-07-09T02:59:48;15.20;99.90
9776;DHT22;4927;52.472;13.108;2023-07-09T03:00:50;15.20;99.90
9776;DHT22;4927;52.472;13.108;2023-07-09T03:01:52;15.20;99.90
9776;DHT22;4927;52.472;13.108;2023-07-09T03:02:55;15.20;99.90
9776;DHT22;4927;52.472;13.108;2023-07-09T03:03:57;15.10;99.90
9776;DHT22;4927;52.472;13.108;2023-07-09T03:04:59;15.10;99.90
9776;DHT22;4927;52.472;13.108;2023-07-09T03:06:01;15.10;99.90
9776;DHT22;4927;52.472;13.108;2023-07-09T03:07:04;15.10;99.90
9776;DHT22;4927;52.472;13.108;2023-07-09T03:08:07;15.10;99.90
9776;DHT22;4927;52.472;13.108;2023-07-09T03:09:09;15.10;99.90
9776;DHT22;4927;52.472;13.108;2023-07-09T03:10:11;15.10;99.90
9776;DHT22;4927;52.472;13.108;2023-07-09T03:11:13;15.10;99.90
9776;DHT22;4927;52.472;13.108;2023-07-09T03:12:15;15.00;99.90
9776;DHT22;4927;52.472;13.108;2023-07-09T03:13:16;15.00;99.90
9776;DHT22;4927;52.472;13.108;2023-07-09T03:14:18;15.00;99.90
9776;DHT22;4927;52.472;13.108;2023-07-09T03:15:20;15.00;99.90
9776;DHT22;4927;52.472;13.108;2023-07-09T03:16:22;15.10;99.90
9776;DHT22;4927;52.472;13.108;2023-07-09T03:17:24;15.10;99.90
9776;DHT22;4927;52.472;13.108;2023-07-09T03:18:26;15.10;99.90
9776;DHT22;4927;52.472;13.108;2023-07-09T03:19:29;15.10;99.90
9776;DHT22;4927;52.472;13.108;2023-07-09T03:20:31;15.10;99.90
9776;DHT22;4927;52.472;13.108;2023-07-09T03:21:33;15.10;99.90
9776;DHT22;4927;52.472;13.108;2023-07-09T03:22:36;15.10;99.90
9776;DHT22;4927;52.472;13.108;2023-07-09T03:23:38;15.10;99.90
9776;DHT22;4927;52.472;13.108;2023-07-09T03:24:40;15.10;99.90
9776;DHT22;4927;52.472;13.108;2023-07-09T03:25:42;15.10;99.90
9776;DHT22;4927;52.472;13.108;2023-07-09T03:26:44;15.20;99.90
9776;DHT22;4927;52.472;13.108;2023-07-09T03:27:48;15.20;99.90
9776;DHT22;4927;52.472;13.108;2023-07-09T03:28:49;15.20;99.90
9776;DHT22;4927;52.472;13.108;2023-07-09T03:29:52;15.20;99.90
9776;DHT22;4927;52.472;13.108;2023-07-09T03:30:54;15.20;99.90
9776;DHT22;4927;52.472;13.108;2023-07-09T03:31:56;15.20;99.90
9776;DHT22;4927;52.472;13.108;2023-07-09T03:32:59;15.20;99.90
9776;DHT22;4927;52.472;13.108;2023-07-09T03:34:01;15.20;99.90
9776;DHT22;4927;52.472;13.108;2023-07-09T03:35:04;15.20;99.90
9776;DHT22;4927;52.472;13.108;2023-07-09T03:36:07;15.20;99.90
9776;DHT22;4927;52.472;13.108;2023-07-09T03:37:10;15.20;99.90
9776;DHT22;4927;52.472;13.108;2023-07-09T03:38:12;15.20;99.90
9776;DHT22;4927;52.472;13.108;2023-07-09T03:39:14;15.20;99.90
9776;DHT22;4927;52.472;13.108;2023-07-09T03:40:21;15.20;99.90
9776;DHT22;4927;52.472;13.108;2023-07-09T03:41:24;15.20;99.90
9776;DHT22;4927;52.472;13.108;2023-07-09T03:42:24;15.20;99.90
9776;DHT22;4927;52.472;13.108;2023-07-09T03:43:26;15.20;99.90
9776;DHT22;4927;52.472;13.108;2023-07-09T03:44:28;15.20;99.90
9776;DHT22;4927;52.472;13.108;2023-07-09T03:45:31;15.20;99.90
9776;DHT22;4927;52.472;13.108;2023-07-09T03:46:32;15.20;99.90
9776;DHT22;4927;52.472;13.108;2023-07-09T03:47:34;15.20;99.90
9776;DHT22;4927;52.472;13.108;2023-07-09T03:48:36;15.20;99.90
9776;DHT22;4927;52.472;13.108;2023-07-09T03:49:38;15.30;99.90
9776;DHT22;4927;52.472;13.108;2023-07-09T03:50:39;15.30;99.90
9776;DHT22;4927;52.472;13.108;2023-07-09T03:51:41;15.30;99.90
9776;DHT22;4927;52.472;13.108;2023-07-09T03:52:43;15.30;99.90
9776;DHT22;4927;52.472;13.108;2023-07-09T03:53:45;15.30;99.90
9776;DHT22;4927;52.472;13.108;2023-07-09T03:54:47;15.30;99.90
9776;DHT22;4927;52.472;13.108;2023-07-09T03:55:51;15.30;99.90
9776;DHT22;4927;52.472;13.108;2023-07-09T03:56:52;15.30;99.90
9776;DHT22;4927;52.472;13.108;2023-07-09T03:57:55;15.40;99.90
9776;DHT22;4927;52.472;13.108;2023-07-09T03:58:57;15.30;99.90
9776;DHT22;4927;52.472;13.108;2023-07-09T03:59:59;15.30;99.90
9776;DHT22;4927;52.472;13.108;2023-07-09T04:01:00;15.30;99.90
9776;DHT22;4927;52.472;13.108;2023-07-09T04:02:02;15.40;99.90
9776;DHT22;4927;52.472;13.108;2023-07-09T04:03:04;15.40;99.90
9776;DHT22;4927;52.472;13.108;2023-07-09T04:04:06;15.40;99.90
9776;DHT22;4927;52.472;13.108;2023-07-09T04:05:08;15.40;99.90
9776;DHT22;4927;52.472;13.108;2023-07-09T04:06:10;15.40;99.90
9776;DHT22;4927;52.472;13.108;2023-07-09T04:07:11;15.40;99.90
9776;DHT22;4927;52.472;13.108;2023-07-09T04:08:13;15.40;99.90
9776;DHT22;4927;52.472;13.108;2023-07-09T04:09:15;15.50;99.90
9776;DHT22;4927;52.472;13.108;2023-07-09T04:10:17;15.50;99.90
9776;DHT22;4927;52.472;13.108;2023-07-09T04:11:19;15.50;99.90
9776;DHT22;4927;52.472;13.108;2023-07-09T04:12:21;15.50;99.90
9776;DHT22;4927;52.472;13.108;2023-07-09T04:13:23;15.60;99.90
9776;DHT22;4927;52.472;13.108;2023-07-09T04:14:24;15.60;99.90
9776;DHT22;4927;52.472;13.108;2023-07-09T04:15:26;15.60;99.90
9776;DHT22;4927;52.472;13.108;2023-07-09T04:16:28;15.60;99.90
9776;DHT22;4927;52.472;13.108;2023-07-09T04:17:30;15.60;99.90
9776;DHT22;4927;52.472;13.108;2023-07-09T04:18:32;15.60;99.90
9776;DHT22;4927;52.472;13.108;2023-07-09T04:19:34;15.70;99.90
9776;DHT22;4927;52.472;13.108;2023-07-09T04:20:36;15.70;99.90
9776;DHT22;4927;52.472;13.108;2023-07-09T04:21:38;15.70;99.90
9776;DHT22;4927;52.472;13.108;2023-07-09T04:22:40;15.70;99.90
9776;DHT22;4927;52.472;13.108;2023-07-09T04:23:41;15.80;99.90
9776;DHT22;4927;52.472;13.108;2023-07-09T04:24:44;15.80;99.90
9776;DHT22;4927;52.472;13.108;2023-07-09T04:25:46;15.80;99.90
9776;DHT22;4927;52.472;13.108;2023-07-09T04:26:48;15.90;99.90
9776;DHT22;4927;52.472;13.108;2023-07-09T04:27:49;15.90;99.90
9776;DHT22;4927;52.472;13.108;2023-07-09T04:28:51;15.90;99.90
9776;DHT22;4927;52.472;13.108;2023-07-09T04:29:53;15.90;99.90
9776;DHT22;4927;52.472;13.108;2023-07-09T04:30:55;16.00;99.90
9776;DHT22;4927;52.472;13.108;2023-07-09T04:31:57;16.00;99.90
9776;DHT22;4927;52.472;13.108;2023-07-09T04:32:59;16.00;99.90
9776;DHT22;4927;52.472;13.108;2023-07-09T04:34:02;16.10;99.90
9776;DHT22;4927;52.472;13.108;2023-07-09T04:35:04;16.10;99.90
9776;DHT22;4927;52.472;13.108;2023-07-09T04:36:08;16.20;99.90
9776;DHT22;4927;52.472;13.108;2023-07-09T04:37:10;16.20;99.90
9776;DHT22;4927;52.472;13.108;2023-07-09T04:38:12;16.20;99.90
9776;DHT22;4927;52.472;13.108;2023-07-09T04:39:14;16.30;99.90
9776;DHT22;4927;52.472;13.108;2023-07-09T04:40:17;16.30;99.90
9776;DHT22;4927;52.472;13.108;2023-07-09T04:41:18;16.40;99.90
9776;DHT22;4927;52.472;13.108;2023-07-09T04:42:19;16.40;99.90
9776;DHT22;4927;52.472;13.108;2023-07-09T04:43:21;16.40;99.90
9776;DHT22;4927;52.472;13.108;2023-07-09T04:44:23;16.50;99.90
9776;DHT22;4927;52.472;13.108;2023-07-09T04:45:25;16.50;99.90
9776;DHT22;4927;52.472;13.108;2023-07-09T04:46:27;16.50;99.90
9776;DHT22;4927;52.472;13.108;2023-07-09T04:47:28;16.60;99.90
9776;DHT22;4927;52.472;13.108;2023-07-09T04:48:30;16.60;99.90
9776;DHT22;4927;52.472;13.108;2023-07-09T04:49:32;16.60;99.90
9776;DHT22;4927;52.472;13.108;2023-07-09T04:50:34;16.70;99.90
9776;DHT22;4927;52.472;13.108;2023-07-09T04:51:36;16.80;99.90
9776;DHT22;4927;52.472;13.108;2023-07-09T04:52:38;16.70;99.90
9776;DHT22;4927;52.472;13.108;2023-07-09T04:53:40;16.80;99.90
9776;DHT22;4927;52.472;13.108;2023-07-09T04:54:42;16.80;99.90
9776;DHT22;4927;52.472;13.108;2023-07-09T04:55:44;16.90;99.90
9776;DHT22;4927;52.472;13.108;2023-07-09T04:56:45;16.90;99.90
9776;DHT22;4927;52.472;13.108;2023-07-09T04:57:47;16.90;99.90
9776;DHT22;4927;52.472;13.108;2023-07-09T04:58:49;17.00;99.90
9776;DHT22;4927;52.472;13.108;2023-07-09T04:59:51;17.10;99.90
9776;DHT22;4927;52.472;13.108;2023-07-09T05:00:53;17.10;99.90
9776;DHT22;4927;52.472;13.108;2023-07-09T05:01:54;17.20;99.90
9776;DHT22;4927;52.472;13.108;2023-07-09T05:02:56;17.20;99.90
9776;DHT22;4927;52.472;13.108;2023-07-09T05:03:58;17.20;99.90
9776;DHT22;4927;52.472;13.108;2023-07-09T05:05:00;17.30;99.90
9776;DHT22;4927;52.472;13.108;2023-07-09T05:06:02;17.30;99.90
9776;DHT22;4927;52.472;13.108;2023-07-09T05:07:05;17.40;99.90
9776;DHT22;4927;52.472;13.108;2023-07-09T05:08:07;17.50;99.90
9776;DHT22;4927;52.472;13.108;2023-07-09T05:09:09;17.50;99.90
9776;DHT22;4927;52.472;13.108;2023-07-09T05:10:11;17.50;99.90
9776;DHT22;4927;52.472;13.108;2023-07-09T05:11:13;17.50;99.90
9776;DHT22;4927;52.472;13.108;2023-07-09T05:12:16;17.60;99.90
9776;DHT22;4927;52.472;13.108;2023-07-09T05:13:18;17.60;99.90
9776;DHT22;4927;52.472;13.108;2023-07-09T05:14:19;17.60;99.90
9776;DHT22;4927;52.472;13.108;2023-07-09T05:15:21;17.70;99.90
9776;DHT22;4927;52.472;13.108;2023-07-09T05:16:24;17.80;99.90
9776;DHT22;4927;52.472;13.108;2023-07-09T05:17:26;17.70;99.90
9776;DHT22;4927;52.472;13.108;2023-07-09T05:18:28;17.90;99.90
9776;DHT22;4927;52.472;13.108;2023-07-09T05:19:30;17.80;99.90
9776;DHT22;4927;52.472;13.108;2023-07-09T05:20:31;17.90;99.90
9776;DHT22;4927;52.472;13.108;2023-07-09T05:21:33;17.90;99.90
9776;DHT22;4927;52.472;13.108;2023-07-09T05:22:35;18.00;99.90
9776;DHT22;4927;52.472;13.108;2023-07-09T05:23:37;18.00;99.90
9776;DHT22;4927;52.472;13.108;2023-07-09T05:24:39;18.10;99.90
9776;DHT22;4927;52.472;13.108;2023-07-09T05:25:40;18.10;99.90
9776;DHT22;4927;52.472;13.108;2023-07-09T05:26:42;18.10;99.90
9776;DHT22;4927;52.472;13.108;2023-07-09T05:27:44;18.20;99.90
9776;DHT22;4927;52.472;13.108;2023-07-09T05:28:46;18.20;99.90
9776;DHT22;4927;52.472;13.108;2023-07-09T05:29:48;18.30;99.90
9776;DHT22;4927;52.472;13.108;2023-07-09T05:30:50;18.30;99.90
9776;DHT22;4927;52.472;13.108;2023-07-09T05:31:52;18.50;99.90
9776;DHT22;4927;52.472;13.108;2023-07-09T05:32:54;18.40;99.90
9776;DHT22;4927;52.472;13.108;2023-07-09T05:33:56;18.50;99.90
9776;DHT22;4927;52.472;13.108;2023-07-09T05:34:58;18.60;99.90
9776;DHT22;4927;52.472;13.108;2023-07-09T05:35:59;18.60;99.90
9776;DHT22;4927;52.472;13.108;2023-07-09T05:37:01;18.70;99.90
9776;DHT22;4927;52.472;13.108;2023-07-09T05:38:04;18.80;99.90
9776;DHT22;4927;52.472;13.108;2023-07-09T05:39:06;18.80;99.90
9776;DHT22;4927;52.472;13.108;2023-07-09T05:40:08;18.90;99.90
9776;DHT22;4927;52.472;13.108;2023-07-09T05:41:10;18.90;99.90
9776;DHT22;4927;52.472;13.108;2023-07-09T05:42:13;19.00;99.90
9776;DHT22;4927;52.472;13.108;2023-07-09T05:43:15;19.10;99.90
9776;DHT22;4927;52.472;13.108;2023-07-09T05:44:17;19.10;99.90
9776;DHT22;4927;52.472;13.108;2023-07-09T05:45:19;19.10;99.90
9776;DHT22;4927;52.472;13.108;2023-07-09T05:46:21;19.10;99.90
9776;DHT22;4927;52.472;13.108;2023-07-09T05:47:23;19.20;99.90
9776;DHT22;4927;52.472;13.108;2023-07-09T05:48:24;19.20;99.90
9776;DHT22;4927;52.472;13.108;2023-07-09T05:49:27;19.40;99.90
9776;DHT22;4927;52.472;13.108;2023-07-09T05:50:29;19.30;99.90
9776;DHT22;4927;52.472;13.108;2023-07-09T05:51:30;19.40;99.90
9776;DHT22;4927;52.472;13.108;2023-07-09T05:52:33;19.50;99.90
9776;DHT22;4927;52.472;13.108;2023-07-09T05:53:35;19.50;99.90
9776;DHT22;4927;52.472;13.108;2023-07-09T05:54:36;19.50;99.90
9776;DHT22;4927;52.472;13.108;2023-07-09T05:55:38;19.60;99.90
9776;DHT22;4927;52.472;13.108;2023-07-09T05:56:40;19.70;99.90
9776;DHT22;4927;52.472;13.108;2023-07-09T05:57:43;19.80;99.90
9776;DHT22;4927;52.472;13.108;2023-07-09T05:58:44;19.70;99.90
9776;DHT22;4927;52.472;13.108;2023-07-09T05:59:46;19.80;99.90
9776;DHT22;4927;52.472;13.108;2023-07-09T06:00:49;19.80;99.90
9776;DHT22;4927;52.472;13.108;2023-07-09T06:01:51;19.90;99.90
9776;DHT22;4927;52.472;13.108;2023-07-09T06:02:53;19.90;99.90
9776;DHT22;4927;52.472;13.108;2023-07-09T06:03:54;20.00;99.90
9776;DHT22;4927;52.472;13.108;2023-07-09T06:04:57;20.00;99.90
9776;DHT22;4927;52.472;13.108;2023-07-09T06:05:58;20.00;99.90
9776;DHT22;4927;52.472;13.108;2023-07-09T06:07:00;20.10;99.90
9776;DHT22;4927;52.472;13.108;2023-07-09T06:08:03;20.10;99.90
9776;DHT22;4927;52.472;13.108;2023-07-09T06:09:05;20.20;99.90
9776;DHT22;4927;52.472;13.108;2023-07-09T06:10:07;20.20;99.90
9776;DHT22;4927;52.472;13.108;2023-07-09T06:11:09;20.20;99.90
9776;DHT22;4927;52.472;13.108;2023-07-09T06:12:11;20.20;99.90
9776;DHT22;4927;52.472;13.108;2023-07-09T06:13:13;20.30;99.90
9776;DHT22;4927;52.472;13.108;2023-07-09T06:14:15;20.30;99.90
9776;DHT22;4927;52.472;13.108;2023-07-09T06:15:17;20.30;99.90
9776;DHT22;4927;52.472;13.108;2023-07-09T06:16:19;20.30;99.90
9776;DHT22;4927;52.472;13.108;2023-07-09T06:17:21;20.30;99.90
9776;DHT22;4927;52.472;13.108;2023-07-09T06:18:23;20.30;99.90
9776;DHT22;4927;52.472;13.108;2023-07-09T06:19:25;20.40;99.90
9776;DHT22;4927;52.472;13.108;2023-07-09T06:20:26;20.40;99.90
9776;DHT22;4927;52.472;13.108;2023-07-09T06:21:28;20.40;99.90
9776;DHT22;4927;52.472;13.108;2023-07-09T06:22:30;20.40;99.90
9776;DHT22;4927;52.472;13.108;2023-07-09T06:23:32;20.50;99.90
9776;DHT22;4927;52.472;13.108;2023-07-09T06:24:34;20.50;99.90
9776;DHT22;4927;52.472;13.108;2023-07-09T06:25:37;20.50;99.90
9776;DHT22;4927;52.472;13.108;2023-07-09T06:26:39;20.60;99.90
9776;DHT22;4927;52.472;13.108;2023-07-09T06:27:41;20.50;99.90
9776;DHT22;4927;52.472;13.108;2023-07-09T06:28:43;20.50;99.90
9776;DHT22;4927;52.472;13.108;2023-07-09T06:29:44;20.60;99.90
9776;DHT22;4927;52.472;13.108;2023-07-09T06:30:46;20.60;99.90
9776;DHT22;4927;52.472;13.108;2023-07-09T06:31:48;20.60;99.90
9776;DHT22;4927;52.472;13.108;2023-07-09T06:32:50;20.60;99.90
9776;DHT22;4927;52.472;13.108;2023-07-09T06:33:52;20.70;99.90
9776;DHT22;4927;52.472;13.108;2023-07-09T06:34:53;20.70;99.90
9776;DHT22;4927;52.472;13.108;2023-07-09T06:35:58;20.70;99.90
9776;DHT22;4927;52.472;13.108;2023-07-09T06:36:58;20.80;99.90
9776;DHT22;4927;52.472;13.108;2023-07-09T06:38:00;20.80;99.90
9776;DHT22;4927;52.472;13.108;2023-07-09T06:39:02;20.90;99.90
9776;DHT22;4927;52.472;13.108;2023-07-09T06:40:05;20.90;99.90
9776;DHT22;4927;52.472;13.108;2023-07-09T06:41:08;20.90;99.90
9776;DHT22;4927;52.472;13.108;2023-07-09T06:42:10;21.00;99.90